Pagina principale
METAR-TAF:

METAR-TAF

Aeroporti :

Aeroporto di Tirana

Tirana, Albania

latitudine: 41-20N, longitudine: 019-47E, altezza: 89 m

Osservazione

Il bollettino è stato emesso 24 minuti fa, alle 09:20 UTC
Vento 3 kt da nord/nord-ovest, variando fra ovest/nord-ovest e est/nord-est
Temperature 23°C
Umidità 53%
Pressione 1018 hPa
Visibilità 10 km o più
nessuna nube inferiore a 1500 m e nessun cumulonembo

METAR: LATI 170920Z 34003KT 300V060 CAVOK 23/13 Q1018 NOSIG

Ora: 11:44 (09:44 UTC)

Previsione

Il bollettino è stato emesso 4 ore e 44 minuti fa, alle 05:00 UTC
Previsione valida dal 17 alle 06 UTC al 18 alle 06 UTC
Vento 3 kt da direzioni variabili
Visibilità 10 km o più
nessuna nube inferiore a 1500 m e nessun cumulonembo
Temporaneamente
dal 17 alle 11 UTC al 17 alle 17 UTC
Vento 10 kt da nord-ovest

TAF: LATI 170500Z 1706/1806 VRB03KT CAVOK TEMPO 1711/1717 31010KT

Osservazioni e previsioni meteorologiche di più di 4000 aeroporti (messaggi METAR e TAF).

Le stazioni disponibili sono rappresentate dai dischi gialli e rossi sulla carta.

Puntare il mouse per vedere il nome della stazione.

Clicca sopra per visualizzare le osservazioni e previsioni meteorologiche.

Per cambiare la mappa : fare clic sui pulsanti verdi con una croce nera per ingrandire, il pulsante verde con un trattino per diminuire, o sulla freccia verde per le mappe adiacenti.


METAR-TAF: